createdAt,value
2019-04-11T00:02:25.445Z,9.20
2019-04-11T00:04:54.446Z,8.50
2019-04-11T00:07:22.670Z,8.50
2019-04-11T00:09:51.224Z,8.50
2019-04-11T00:12:22.152Z,8.40
2019-04-11T00:14:50.082Z,8.40
2019-04-11T00:17:17.826Z,8.50
2019-04-11T00:19:45.677Z,8.50
2019-04-11T00:22:19.466Z,7.50
2019-04-11T00:27:51.046Z,8.50
2019-04-11T00:30:19.808Z,8.40
2019-04-11T00:32:49.767Z,8.40
2019-04-11T00:35:19.701Z,8.40
2019-04-11T00:37:47.616Z,8.40
2019-04-11T00:40:15.476Z,8.40
2019-04-11T00:42:43.273Z,8.40
2019-04-11T00:45:13.689Z,8.40
2019-04-11T00:47:42.689Z,8.30
2019-04-11T00:50:10.767Z,8.00
2019-04-11T00:52:39.167Z,8.30
2019-04-11T00:55:07.280Z,8.20
2019-04-11T00:57:35.053Z,8.20
2019-04-11T01:00:04.810Z,8.20
2019-04-11T01:02:35.700Z,7.20
2019-04-11T01:05:04.052Z,8.20
2019-04-11T01:07:33.128Z,8.10
2019-04-11T01:10:01.086Z,8.10
2019-04-11T01:12:28.990Z,8.10
2019-04-11T01:14:57.372Z,8.00
2019-04-11T01:17:25.440Z,8.10
2019-04-11T01:19:53.292Z,8.10
2019-04-11T01:22:22.131Z,8.00
2019-04-11T01:24:50.338Z,8.00
2019-04-11T01:27:18.166Z,8.00
2019-04-11T01:29:47.301Z,8.00
2019-04-11T01:32:15.949Z,8.00
2019-04-11T01:34:44.629Z,8.00
2019-04-11T01:37:12.496Z,7.90
2019-04-11T01:40:13.732Z,8.00
2019-04-11T01:42:41.831Z,7.90
2019-04-11T01:45:09.911Z,7.90
2019-04-11T01:48:01.563Z,7.90
2019-04-11T01:50:32.868Z,7.90
2019-04-11T01:53:00.821Z,7.90
2019-04-11T01:55:28.522Z,7.90
2019-04-11T01:57:56.159Z,7.80
2019-04-11T02:00:46.299Z,7.80
2019-04-11T02:03:17.112Z,7.70
2019-04-11T02:05:45.333Z,7.70
2019-04-11T02:08:13.324Z,7.70
2019-04-11T02:10:41.268Z,7.60
2019-04-11T02:13:09.935Z,7.60
2019-04-11T02:15:38.579Z,7.60
2019-04-11T02:18:07.473Z,7.50
2019-04-11T02:20:35.174Z,7.50
2019-04-11T02:23:14.992Z,7.50
2019-04-11T02:26:00.881Z,7.40
2019-04-11T02:28:28.813Z,7.40
2019-04-11T02:30:57.020Z,7.40
2019-04-11T02:33:26.466Z,7.30
2019-04-11T02:35:54.521Z,7.30
2019-04-11T02:38:24.381Z,7.30
2019-04-11T02:40:55.023Z,7.30
2019-04-11T02:43:25.219Z,7.30
2019-04-11T02:46:04.884Z,7.30
2019-04-11T02:48:22.109Z,7.20
2019-04-11T02:50:50.764Z,7.20
2019-04-11T02:53:18.744Z,7.20
2019-04-11T02:55:46.853Z,7.20
2019-04-11T02:58:15.270Z,7.70
2019-04-11T03:00:44.950Z,7.10
2019-04-11T03:03:13.008Z,7.00
2019-04-11T03:05:43.997Z,7.00
2019-04-11T03:08:15.605Z,6.90
2019-04-11T03:10:41.123Z,6.90
2019-04-11T03:13:10.542Z,6.80
2019-04-11T03:15:54.516Z,6.80
2019-04-11T03:18:10.035Z,6.80
2019-04-11T03:20:45.709Z,6.80
2019-04-11T03:23:09.861Z,6.70
2019-04-11T03:25:38.447Z,6.70
2019-04-11T03:28:12.107Z,6.60
2019-04-11T03:30:56.904Z,6.20
2019-04-11T03:36:27.676Z,6.60
2019-04-11T03:38:30.856Z,6.60
2019-04-11T03:40:51.880Z,6.60
2019-04-11T03:43:18.349Z,6.50
2019-04-11T03:45:56.301Z,6.50
2019-04-11T03:48:19.628Z,6.50
2019-04-11T03:50:39.268Z,6.50
2019-04-11T03:53:09.354Z,6.50
2019-04-11T03:55:38.935Z,6.00
2019-04-11T03:58:08.443Z,6.50
2019-04-11T04:00:41.217Z,6.50
2019-04-11T04:03:09.067Z,6.50
2019-04-11T04:05:38.982Z,6.50
2019-04-11T04:08:08.406Z,6.50
2019-04-11T04:10:39.500Z,6.50
2019-04-11T04:13:13.991Z,6.50
2019-04-11T04:16:12.992Z,6.50
2019-04-11T04:18:41.027Z,6.40
2019-04-11T04:21:43.603Z,6.50
2019-04-11T04:24:35.428Z,6.50
2019-04-11T04:27:02.187Z,6.50
2019-04-11T04:29:32.422Z,6.40
2019-04-11T04:32:02.614Z,6.50
2019-04-11T04:34:31.648Z,6.40
2019-04-11T04:37:00.070Z,6.40
2019-04-11T04:39:29.229Z,6.40
2019-04-11T04:42:05.880Z,6.40
2019-04-11T04:44:26.797Z,6.40
2019-04-11T04:47:08.750Z,6.40
2019-04-11T04:49:23.800Z,6.40
2019-04-11T04:51:53.477Z,6.40
2019-04-11T04:54:24.107Z,6.40
2019-04-11T04:56:52.423Z,6.40
2019-04-11T04:59:21.528Z,6.80
2019-04-11T05:01:50.855Z,6.50
2019-04-11T05:04:19.030Z,6.50
2019-04-11T05:06:48.298Z,6.40
2019-04-11T05:09:15.852Z,6.50
2019-04-11T05:11:44.592Z,7.10
2019-04-11T05:14:12.516Z,6.40
2019-04-11T05:16:41.692Z,6.40
2019-04-11T05:19:09.176Z,6.40
2019-04-11T05:21:37.185Z,6.40
2019-04-11T05:24:06.116Z,6.40
2019-04-11T05:26:33.721Z,7.40
2019-04-11T05:29:01.054Z,6.40
2019-04-11T05:31:28.669Z,6.40
2019-04-11T05:33:56.156Z,6.30
2019-04-11T05:36:24.708Z,6.30
2019-04-11T05:38:52.664Z,6.40
2019-04-11T05:41:22.026Z,7.90
2019-04-11T05:43:49.641Z,6.40
2019-04-11T05:46:32.530Z,6.30
2019-04-11T05:49:07.455Z,6.40
2019-04-11T05:51:39.963Z,6.40
2019-04-11T05:54:07.328Z,6.40
2019-04-11T05:56:33.957Z,6.30
2019-04-11T05:59:09.468Z,6.40
2019-04-11T06:01:42.535Z,6.70
2019-04-11T06:04:20.308Z,6.50
2019-04-11T06:07:03.287Z,6.40
2019-04-11T06:09:34.797Z,6.40
2019-04-11T06:12:17.138Z,6.30
2019-04-11T06:15:02.445Z,6.30
2019-04-11T06:17:32.335Z,6.30
2019-04-11T06:20:25.090Z,6.30
2019-04-11T06:23:19.154Z,6.20
2019-04-11T06:25:59.207Z,6.20
2019-04-11T06:28:30.753Z,6.20
2019-04-11T06:31:16.207Z,6.20
2019-04-11T06:33:49.044Z,6.20
2019-04-11T06:36:36.977Z,6.30
2019-04-11T06:39:13.901Z,6.40
2019-04-11T06:41:59.572Z,6.40
2019-04-11T06:44:39.839Z,6.50
2019-04-11T06:47:27.213Z,6.50
2019-04-11T06:50:31.355Z,6.50
2019-04-11T06:53:00.303Z,6.40
2019-04-11T06:56:05.714Z,6.50
2019-04-11T06:58:43.664Z,6.50
2019-04-11T07:01:16.119Z,8.50
2019-04-11T07:03:55.050Z,6.60
2019-04-11T07:06:25.853Z,6.60
2019-04-11T07:09:28.701Z,6.60
2019-04-11T07:12:01.363Z,6.60
2019-04-11T07:14:39.829Z,6.60
2019-04-11T07:17:25.999Z,6.60
2019-04-11T07:20:12.956Z,6.50
2019-04-11T07:22:59.519Z,6.50
2019-04-11T07:25:45.077Z,6.60
2019-04-11T07:28:19.893Z,6.60
2019-04-11T07:31:07.819Z,6.60
2019-04-11T07:33:56.190Z,6.50
2019-04-11T07:36:42.266Z,6.40
2019-04-11T07:39:25.604Z,6.60
2019-04-11T07:42:18.104Z,6.60
2019-04-11T07:44:53.162Z,6.60
2019-04-11T07:47:37.598Z,6.60
2019-04-11T07:50:10.106Z,6.70
2019-04-11T07:52:47.088Z,6.60
2019-04-11T07:55:18.960Z,6.60
2019-04-11T07:57:49.070Z,6.50
2019-04-11T08:00:44.174Z,6.50
2019-04-11T08:06:22.284Z,6.60
2019-04-11T08:09:09.639Z,6.60
2019-04-11T08:11:47.811Z,6.60
2019-04-11T08:14:35.039Z,6.70
2019-04-11T08:17:09.339Z,6.60
2019-04-11T08:20:03.563Z,6.70
2019-04-11T08:22:57.183Z,6.70
2019-04-11T08:25:45.195Z,6.70
2019-04-11T08:28:14.166Z,6.70
2019-04-11T08:30:52.571Z,6.70
2019-04-11T08:33:20.281Z,6.80
2019-04-11T08:35:57.135Z,8.30
2019-04-11T08:38:28.788Z,7.70
2019-04-11T08:41:14.184Z,6.80
2019-04-11T08:43:41.927Z,6.80
2019-04-11T08:46:16.228Z,6.90
2019-04-11T08:48:47.355Z,6.90
2019-04-11T08:51:15.296Z,6.90
2019-04-11T08:54:01.507Z,8.20
2019-04-11T08:56:29.581Z,6.90
2019-04-11T08:59:35.641Z,6.90
2019-04-11T09:02:04.633Z,6.80
2019-04-11T09:05:07.071Z,6.80
2019-04-11T09:07:36.579Z,6.80
2019-04-11T09:10:24.160Z,6.80
2019-04-11T09:13:20.640Z,6.80
2019-04-11T09:16:17.514Z,6.80
2019-04-11T09:18:46.228Z,6.80
2019-04-11T09:21:40.402Z,6.90
2019-04-11T09:24:34.646Z,6.90
2019-04-11T09:27:21.072Z,7.90
2019-04-11T09:29:52.855Z,6.80
2019-04-11T09:32:40.348Z,6.90
2019-04-11T09:35:16.508Z,8.10
2019-04-11T09:37:44.668Z,7.70
2019-04-11T09:40:31.942Z,6.90
2019-04-11T09:43:15.808Z,6.90
2019-04-11T09:46:08.085Z,6.90
2019-04-11T09:48:56.092Z,7.30
2019-04-11T09:51:58.611Z,7.50
2019-04-11T09:54:48.886Z,6.80
2019-04-11T09:57:36.563Z,7.20
2019-04-11T10:00:28.682Z,6.80
2019-04-11T10:03:19.671Z,6.80
2019-04-11T10:05:55.054Z,6.90
2019-04-11T10:08:51.618Z,6.90
2019-04-11T10:11:54.922Z,6.90
2019-04-11T10:14:25.863Z,6.90
2019-04-11T10:17:12.705Z,7.00
2019-04-11T10:19:42.570Z,7.10
2019-04-11T10:22:36.203Z,7.10
2019-04-11T10:25:31.960Z,7.10
2019-04-11T10:28:19.482Z,7.20
2019-04-11T10:31:06.366Z,7.20
2019-04-11T10:33:53.776Z,7.40
2019-04-11T10:36:25.224Z,7.10
2019-04-11T10:39:02.668Z,7.10
2019-04-11T10:41:34.990Z,7.10
2019-04-11T10:44:03.340Z,7.10
2019-04-11T10:46:45.735Z,7.10
2019-04-11T10:49:22.012Z,7.20
2019-04-11T10:52:16.288Z,7.20
2019-04-11T10:55:03.135Z,7.20
2019-04-11T10:57:36.171Z,7.20
2019-04-11T11:00:11.181Z,7.10
2019-04-11T11:03:06.315Z,7.10
2019-04-11T11:05:38.019Z,7.10
2019-04-11T11:08:15.827Z,7.10
2019-04-11T11:10:43.852Z,7.20
2019-04-11T11:13:39.544Z,7.30
2019-04-11T11:16:08.916Z,8.30
2019-04-11T11:19:31.800Z,7.40
2019-04-11T11:21:34.292Z,7.40
2019-04-11T11:24:33.843Z,7.50
2019-04-11T11:27:04.108Z,7.50
2019-04-11T11:29:51.805Z,8.00
2019-04-11T11:32:31.742Z,7.70
2019-04-11T11:35:30.612Z,7.70
2019-04-11T11:38:19.935Z,7.80
2019-04-11T11:41:18.478Z,8.00
2019-04-11T11:43:48.800Z,8.00
2019-04-11T11:46:31.262Z,8.10
2019-04-11T11:49:32.529Z,8.20
2019-04-11T11:52:13.689Z,8.10
2019-04-11T11:54:48.666Z,8.10
2019-04-11T11:57:30.824Z,8.10
2019-04-11T12:00:12.627Z,8.20
2019-04-11T12:03:08.999Z,8.20
2019-04-11T12:05:46.973Z,8.30
2019-04-11T12:08:20.500Z,8.30
2019-04-11T12:11:10.205Z,8.40
2019-04-11T12:13:56.199Z,8.60
2019-04-11T12:16:34.761Z,8.70
2019-04-11T12:19:24.664Z,8.80
2019-04-11T12:21:55.962Z,9.60
2019-04-11T12:24:38.565Z,9.00
2019-04-11T12:27:32.963Z,9.20
2019-04-11T12:30:23.452Z,9.20
2019-04-11T12:33:08.863Z,9.20
2019-04-11T12:36:01.996Z,9.20
2019-04-11T12:39:01.589Z,9.30
2019-04-11T12:41:39.353Z,9.40
2019-04-11T12:44:30.385Z,9.50
2019-04-11T12:47:16.061Z,9.50
2019-04-11T12:50:03.791Z,9.50
2019-04-11T12:52:43.972Z,9.50
2019-04-11T12:55:14.476Z,9.50
2019-04-11T12:58:03.570Z,10.10
2019-04-11T13:00:41.423Z,9.50
2019-04-11T13:03:28.555Z,9.40
2019-04-11T13:05:59.655Z,9.30
2019-04-11T13:08:47.071Z,9.20
2019-04-11T13:11:15.124Z,9.20
2019-04-11T13:14:00.887Z,9.00
2019-04-11T13:16:28.416Z,9.50
2019-04-11T13:19:16.504Z,9.00
2019-04-11T13:21:57.300Z,9.00
2019-04-11T13:24:47.928Z,8.90
2019-04-11T13:27:28.329Z,8.90
2019-04-11T13:30:18.625Z,8.80
2019-04-11T13:32:51.114Z,9.70
2019-04-11T13:35:38.243Z,8.60
2019-04-11T13:38:08.063Z,8.60
2019-04-11T13:41:01.463Z,8.50
2019-04-11T13:43:52.250Z,8.40
2019-04-11T13:46:50.003Z,8.40
2019-04-11T13:49:46.121Z,8.30
2019-04-11T13:52:33.489Z,8.30
2019-04-11T13:55:08.929Z,8.30
2019-04-11T13:57:58.070Z,8.20
2019-04-11T14:00:45.348Z,8.60
2019-04-11T14:03:47.487Z,6.70
2019-04-11T14:06:25.348Z,8.00
2019-04-11T14:09:21.384Z,8.00
2019-04-11T14:11:50.716Z,7.90
2019-04-11T14:14:21.240Z,7.90
2019-04-11T14:17:07.142Z,7.90
2019-04-11T14:19:54.243Z,7.80
2019-04-11T14:22:28.925Z,7.80
2019-04-11T14:25:14.858Z,7.80
2019-04-11T14:27:41.724Z,7.80
2019-04-11T14:30:32.293Z,8.60
2019-04-11T14:33:01.119Z,7.80
2019-04-11T14:35:48.278Z,7.80
2019-04-11T14:38:17.300Z,7.80
2019-04-11T14:41:04.026Z,7.70
2019-04-11T14:43:35.358Z,7.70
2019-04-11T14:46:22.899Z,7.60
2019-04-11T14:48:56.372Z,7.60
2019-04-11T14:51:59.064Z,7.60
2019-04-11T14:54:48.855Z,7.50
2019-04-11T14:57:37.848Z,7.40
2019-04-11T15:00:25.042Z,7.40
2019-04-11T15:03:24.687Z,8.00
2019-04-11T15:06:15.354Z,7.30
2019-04-11T15:09:02.444Z,7.30
2019-04-11T15:11:55.082Z,7.30
2019-04-11T15:14:47.795Z,7.20
2019-04-11T15:17:27.050Z,7.20
2019-04-11T15:20:17.146Z,7.20
2019-04-11T15:22:50.952Z,7.20
2019-04-11T15:25:37.883Z,7.20
2019-04-11T15:28:19.861Z,7.10
2019-04-11T15:30:49.695Z,7.10
2019-04-11T15:33:37.779Z,7.10
2019-04-11T15:36:05.657Z,7.00
2019-04-11T15:38:56.665Z,7.10
2019-04-11T15:41:24.414Z,6.00
2019-04-11T15:44:17.500Z,7.00
2019-04-11T15:46:47.592Z,7.00
2019-04-11T15:49:31.147Z,7.00
2019-04-11T15:52:08.755Z,7.00
2019-04-11T15:54:56.722Z,6.10
2019-04-11T15:57:43.072Z,7.10
2019-04-11T16:00:44.446Z,7.00
2019-04-11T16:03:18.299Z,7.00
2019-04-11T16:06:04.281Z,7.00
2019-04-11T16:08:39.468Z,7.00
2019-04-11T16:11:28.072Z,7.00
2019-04-11T16:14:21.324Z,7.00
2019-04-11T16:17:18.585Z,7.00
2019-04-11T16:19:50.776Z,7.00
2019-04-11T16:22:36.913Z,8.90
2019-04-11T16:25:13.983Z,7.00
2019-04-11T16:28:08.032Z,6.90
2019-04-11T16:30:39.829Z,6.90
2019-04-11T16:33:17.134Z,6.90
2019-04-11T16:35:56.906Z,6.80
2019-04-11T16:38:25.267Z,6.80
2019-04-11T16:41:13.377Z,6.80
2019-04-11T16:43:44.060Z,6.80
2019-04-11T16:46:54.904Z,6.80
2019-04-11T16:49:21.267Z,6.80
2019-04-11T16:51:49.156Z,6.80
2019-04-11T16:54:17.526Z,6.80
2019-04-11T16:56:45.774Z,6.80
2019-04-11T17:00:09.019Z,8.00
2019-04-11T17:02:38.331Z,6.30
2019-04-11T17:05:08.465Z,6.70
2019-04-11T17:07:56.166Z,6.70
2019-04-11T17:11:18.769Z,6.60
2019-04-11T17:13:45.439Z,6.60
2019-04-11T17:16:16.915Z,6.60
2019-04-11T17:18:46.106Z,6.60
2019-04-11T17:21:13.473Z,6.60
2019-04-11T17:23:40.893Z,7.30
2019-04-11T17:26:08.904Z,6.60
2019-04-11T17:28:36.353Z,6.20
2019-04-11T17:31:03.925Z,6.60
2019-04-11T17:33:31.273Z,6.60
2019-04-11T17:36:02.071Z,6.50
2019-04-11T17:38:28.375Z,6.50
2019-04-11T17:41:03.135Z,6.40
2019-04-11T17:43:32.384Z,6.30
2019-04-11T17:46:02.597Z,6.20
2019-04-11T17:48:37.418Z,6.20
2019-04-11T17:51:06.374Z,6.20
2019-04-11T17:53:45.971Z,6.10
2019-04-11T17:56:16.148Z,6.10
2019-04-11T17:58:43.839Z,6.10
2019-04-11T18:01:12.528Z,6.10
2019-04-11T18:03:45.431Z,6.20
2019-04-11T18:06:16.958Z,6.20
2019-04-11T18:08:42.766Z,6.20
2019-04-11T18:11:10.874Z,6.20
2019-04-11T18:13:38.305Z,6.20
2019-04-11T18:16:05.815Z,6.20
2019-04-11T18:18:35.201Z,6.20
2019-04-11T18:21:07.060Z,6.20
2019-04-11T18:23:35.941Z,6.20
2019-04-11T18:26:06.337Z,6.20
2019-04-11T18:28:33.809Z,6.20
2019-04-11T18:31:01.704Z,6.20
2019-04-11T18:33:31.706Z,6.20
2019-04-11T18:36:02.210Z,6.20
2019-04-11T18:38:31.836Z,6.20
2019-04-11T18:40:59.955Z,6.20
2019-04-11T18:43:27.501Z,6.20
2019-04-11T18:45:55.139Z,6.20
2019-04-11T18:48:23.572Z,6.20
2019-04-11T18:50:53.166Z,6.20
2019-04-11T18:53:21.432Z,6.20
2019-04-11T18:55:48.851Z,6.20
2019-04-11T18:58:16.406Z,6.20
2019-04-11T19:01:08.743Z,6.10
2019-04-11T19:03:36.701Z,6.60
2019-04-11T19:06:04.185Z,6.10
2019-04-11T19:08:32.261Z,6.10
2019-04-11T19:10:59.799Z,6.10
2019-04-11T19:13:27.341Z,6.10
2019-04-11T19:15:54.990Z,6.10
2019-04-11T19:18:22.350Z,6.10
2019-04-11T19:20:51.153Z,6.10
2019-04-11T19:23:23.198Z,6.00
2019-04-11T19:25:53.353Z,6.00
2019-04-11T19:28:25.133Z,6.00
2019-04-11T19:30:56.239Z,6.00
2019-04-11T19:33:24.864Z,6.00
2019-04-11T19:35:52.360Z,6.00
2019-04-11T19:38:29.827Z,5.90
2019-04-11T19:40:59.392Z,5.90
2019-04-11T19:43:27.329Z,5.90
2019-04-11T19:45:54.719Z,5.90
2019-04-11T19:48:25.240Z,5.90
2019-04-11T19:50:54.172Z,6.20
2019-04-11T19:53:21.932Z,6.80
2019-04-11T19:56:10.503Z,5.80
2019-04-11T19:58:40.715Z,5.90
2019-04-11T20:01:08.541Z,5.80
2019-04-11T20:03:36.190Z,5.80
2019-04-11T20:06:04.308Z,6.50
2019-04-11T20:08:38.632Z,6.80
2019-04-11T20:11:08.606Z,5.80
2019-04-11T20:13:36.155Z,5.80
2019-04-11T20:16:03.688Z,5.80
2019-04-11T20:18:35.318Z,6.90
2019-04-11T20:21:07.216Z,5.90
2019-04-11T20:23:32.056Z,5.80
2019-04-11T20:25:59.423Z,5.80
2019-04-11T20:28:27.052Z,5.80
2019-04-11T20:30:54.847Z,5.80
2019-04-11T20:33:27.337Z,7.00
2019-04-11T20:35:51.734Z,5.80
2019-04-11T20:38:19.227Z,5.80
2019-04-11T20:40:46.820Z,5.80
2019-04-11T20:43:14.416Z,6.80
2019-04-11T20:45:42.241Z,5.70
2019-04-11T20:48:09.664Z,5.70
2019-04-11T20:50:37.124Z,5.70
2019-04-11T20:53:12.722Z,5.70
2019-04-11T20:55:34.150Z,5.70
2019-04-11T20:58:01.708Z,5.70
2019-04-11T21:00:29.133Z,5.70
2019-04-11T21:02:58.322Z,5.60
2019-04-11T21:05:26.198Z,5.70
2019-04-11T21:07:53.516Z,5.60
2019-04-11T21:10:22.903Z,5.60
2019-04-11T21:12:50.889Z,5.60
2019-04-11T21:15:19.514Z,5.60
2019-04-11T21:17:46.985Z,5.70
2019-04-11T21:20:14.582Z,4.90
2019-04-11T21:22:41.940Z,5.70
2019-04-11T21:25:09.826Z,5.60
2019-04-11T21:27:37.333Z,5.60
2019-04-11T21:30:05.443Z,5.60
2019-04-11T21:32:32.877Z,5.60
2019-04-11T21:35:02.407Z,5.60
2019-04-11T21:37:30.185Z,5.60
2019-04-11T21:39:58.039Z,5.40
2019-04-11T21:42:25.602Z,7.00
2019-04-11T21:44:52.921Z,6.30
2019-04-11T21:47:23.485Z,5.70
2019-04-11T21:49:53.424Z,6.60
2019-04-11T21:52:20.975Z,5.70
2019-04-11T21:54:48.476Z,5.60
2019-04-11T21:57:18.411Z,5.60
2019-04-11T21:59:45.191Z,5.60
2019-04-11T22:02:15.823Z,5.60
2019-04-11T22:04:43.298Z,5.60
2019-04-11T22:07:10.791Z,5.60
2019-04-11T22:09:39.535Z,5.60
2019-04-11T22:12:44.751Z,5.60
2019-04-11T22:15:12.777Z,5.60
2019-04-11T22:17:40.156Z,5.60
2019-04-11T22:20:07.795Z,5.60
2019-04-11T22:22:37.295Z,5.60
2019-04-11T22:25:45.814Z,5.60
2019-04-11T22:28:13.715Z,5.60
2019-04-11T22:30:41.240Z,5.60
2019-04-11T22:33:22.246Z,5.60
2019-04-11T22:35:51.619Z,5.60
2019-04-11T22:38:19.541Z,5.60
2019-04-11T22:40:46.978Z,5.60
2019-04-11T22:43:24.086Z,5.60
2019-04-11T22:45:44.179Z,5.60
2019-04-11T22:48:11.649Z,5.60
2019-04-11T22:50:40.670Z,5.60
2019-04-11T22:53:12.864Z,5.60
2019-04-11T22:55:38.961Z,5.60
2019-04-11T22:58:07.227Z,5.60
2019-04-11T23:00:34.678Z,5.60
2019-04-11T23:03:18.179Z,5.60
2019-04-11T23:05:46.932Z,5.60
2019-04-11T23:08:18.732Z,5.60
2019-04-11T23:10:48.068Z,5.60
2019-04-11T23:13:17.635Z,5.60
2019-04-11T23:15:45.089Z,5.60
2019-04-11T23:18:13.995Z,5.60
2019-04-11T23:20:44.074Z,5.60
2019-04-11T23:23:13.380Z,5.70
2019-04-11T23:25:41.238Z,5.60
2019-04-11T23:28:09.290Z,5.60
2019-04-11T23:30:37.646Z,5.60
2019-04-11T23:33:05.160Z,5.60
2019-04-11T23:35:33.042Z,5.60
2019-04-11T23:38:00.429Z,5.60
2019-04-11T23:40:27.961Z,5.60
2019-04-11T23:42:55.387Z,5.70
2019-04-11T23:45:25.378Z,5.70
2019-04-11T23:47:54.076Z,5.70
2019-04-11T23:50:24.929Z,5.70
2019-04-11T23:52:51.269Z,5.70
2019-04-11T23:55:18.895Z,5.70
2019-04-11T23:57:48.336Z,5.70
